sensor_id;sensor_type;location;lat;lon;timestamp;pressure;altitude;pressure_sealevel;temperature;humidity
15308;BME280;7755;52.208;6.964;2023-06-14T00:00:51;101128.72;;;19.86;40.92
15308;BME280;7755;52.208;6.964;2023-06-14T00:04:56;101129.00;;;19.85;41.04
15308;BME280;7755;52.208;6.964;2023-06-14T00:09:01;101132.13;;;19.78;41.43
15308;BME280;7755;52.208;6.964;2023-06-14T00:13:05;101132.16;;;19.73;41.65
15308;BME280;7755;52.208;6.964;2023-06-14T00:17:08;101133.84;;;19.69;41.57
15308;BME280;7755;52.208;6.964;2023-06-14T00:21:12;101139.19;;;19.60;41.88
15308;BME280;7755;52.208;6.964;2023-06-14T00:25:14;101139.19;;;19.55;42.00
15308;BME280;7755;52.208;6.964;2023-06-14T00:29:32;101150.56;;;19.49;42.21
15308;BME280;7755;52.208;6.964;2023-06-14T00:33:39;101149.78;;;19.43;42.52
15308;BME280;7755;52.208;6.964;2023-06-14T00:37:42;101147.91;;;19.39;42.55
15308;BME280;7755;52.208;6.964;2023-06-14T00:41:45;101144.34;;;19.33;42.82
15308;BME280;7755;52.208;6.964;2023-06-14T00:45:49;101141.41;;;19.24;42.84
15308;BME280;7755;52.208;6.964;2023-06-14T00:49:53;101146.13;;;19.19;42.95
15308;BME280;7755;52.208;6.964;2023-06-14T00:53:57;101153.59;;;19.13;43.23
15308;BME280;7755;52.208;6.964;2023-06-14T00:58:01;101149.75;;;19.09;43.48
15308;BME280;7755;52.208;6.964;2023-06-14T01:02:05;101157.28;;;19.03;43.63
15308;BME280;7755;52.208;6.964;2023-06-14T01:06:23;101164.16;;;19.01;43.89
15308;BME280;7755;52.208;6.964;2023-06-14T01:10:36;101163.66;;;18.94;44.01
15308;BME280;7755;52.208;6.964;2023-06-14T01:14:46;101169.47;;;18.87;44.19
15308;BME280;7755;52.208;6.964;2023-06-14T01:18:55;101166.47;;;18.84;44.33
15308;BME280;7755;52.208;6.964;2023-06-14T01:23:00;101163.47;;;18.80;44.50
15308;BME280;7755;52.208;6.964;2023-06-14T01:27:05;101166.00;;;18.71;44.75
15308;BME280;7755;52.208;6.964;2023-06-14T01:31:10;101158.31;;;18.63;44.89
15308;BME280;7755;52.208;6.964;2023-06-14T01:35:14;101160.81;;;18.54;45.26
15308;BME280;7755;52.208;6.964;2023-06-14T01:39:18;101163.03;;;18.47;45.49
15308;BME280;7755;52.208;6.964;2023-06-14T01:43:23;101168.31;;;18.39;46.01
15308;BME280;7755;52.208;6.964;2023-06-14T01:47:27;101164.75;;;18.38;45.95
15308;BME280;7755;52.208;6.964;2023-06-14T01:51:29;101166.69;;;18.33;46.34
15308;BME280;7755;52.208;6.964;2023-06-14T01:55:34;101166.97;;;18.26;46.55
15308;BME280;7755;52.208;6.964;2023-06-14T01:59:41;101165.88;;;18.22;46.47
15308;BME280;7755;52.208;6.964;2023-06-14T02:03:44;101158.47;;;18.17;46.88
15308;BME280;7755;52.208;6.964;2023-06-14T02:07:50;101158.50;;;18.12;47.10
15308;BME280;7755;52.208;6.964;2023-06-14T02:11:54;101159.06;;;18.04;47.30
15308;BME280;7755;52.208;6.964;2023-06-14T02:15:57;101161.28;;;17.97;47.40
15308;BME280;7755;52.208;6.964;2023-06-14T02:20:02;101162.94;;;17.93;47.76
15308;BME280;7755;52.208;6.964;2023-06-14T02:24:07;101159.66;;;17.91;47.80
15308;BME280;7755;52.208;6.964;2023-06-14T02:28:11;101169.59;;;17.82;48.24
15308;BME280;7755;52.208;6.964;2023-06-14T02:32:14;101168.47;;;17.83;48.56
15308;BME280;7755;52.208;6.964;2023-06-14T02:36:18;101171.22;;;17.78;48.59
15308;BME280;7755;52.208;6.964;2023-06-14T02:40:20;101176.19;;;17.76;48.88
15308;BME280;7755;52.208;6.964;2023-06-14T02:44:26;101169.00;;;17.69;49.09
15308;BME280;7755;52.208;6.964;2023-06-14T02:48:29;101171.75;;;17.64;49.15
15308;BME280;7755;52.208;6.964;2023-06-14T02:52:33;101168.72;;;17.61;49.38
15308;BME280;7755;52.208;6.964;2023-06-14T02:56:36;101173.69;;;17.59;49.70
15308;BME280;7755;52.208;6.964;2023-06-14T03:00:41;101176.72;;;17.52;50.04
15308;BME280;7755;52.208;6.964;2023-06-14T03:04:44;101187.44;;;17.49;50.24
15308;BME280;7755;52.208;6.964;2023-06-14T03:08:51;101181.13;;;17.43;50.66
15308;BME280;7755;52.208;6.964;2023-06-14T03:12:57;101192.38;;;17.36;50.96
15308;BME280;7755;52.208;6.964;2023-06-14T03:17:03;101198.97;;;17.30;51.20
15308;BME280;7755;52.208;6.964;2023-06-14T03:21:09;101202.00;;;17.29;51.42
15308;BME280;7755;52.208;6.964;2023-06-14T03:25:16;101202.81;;;17.24;51.75
15308;BME280;7755;52.208;6.964;2023-06-14T03:29:34;101215.44;;;17.20;52.06
15308;BME280;7755;52.208;6.964;2023-06-14T03:38:10;101220.94;;;17.15;52.63
15308;BME280;7755;52.208;6.964;2023-06-14T03:42:13;101224.50;;;17.15;52.60
15308;BME280;7755;52.208;6.964;2023-06-14T03:46:17;101228.34;;;17.09;53.09
15308;BME280;7755;52.208;6.964;2023-06-14T03:50:20;101232.19;;;17.08;53.41
15308;BME280;7755;52.208;6.964;2023-06-14T03:54:26;101236.56;;;17.04;53.62
15308;BME280;7755;52.208;6.964;2023-06-14T03:58:50;101239.31;;;17.04;53.93
15308;BME280;7755;52.208;6.964;2023-06-14T04:02:57;101237.38;;;17.00;54.28
15308;BME280;7755;52.208;6.964;2023-06-14T04:07:30;101246.16;;;16.97;54.55
15308;BME280;7755;52.208;6.964;2023-06-14T04:11:35;101249.47;;;16.99;54.92
15308;BME280;7755;52.208;6.964;2023-06-14T04:25:15;101264.31;;;17.03;55.65
15308;BME280;7755;52.208;6.964;2023-06-14T04:29:26;101269.25;;;17.01;56.03
15308;BME280;7755;52.208;6.964;2023-06-14T04:33:35;101278.59;;;17.05;56.08
15308;BME280;7755;52.208;6.964;2023-06-14T04:37:48;101281.91;;;17.07;56.17
15308;BME280;7755;52.208;6.964;2023-06-14T04:41:53;101281.91;;;17.12;56.15
15308;BME280;7755;52.208;6.964;2023-06-14T04:46:00;101295.16;;;17.30;56.72
15308;BME280;7755;52.208;6.964;2023-06-14T04:50:05;101300.94;;;17.39;56.16
15308;BME280;7755;52.208;6.964;2023-06-14T04:54:09;101306.19;;;17.40;56.22
15308;BME280;7755;52.208;6.964;2023-06-14T04:58:16;101302.34;;;17.41;56.39
15308;BME280;7755;52.208;6.964;2023-06-14T05:02:21;101300.97;;;17.44;56.38
15308;BME280;7755;52.208;6.964;2023-06-14T05:06:24;101305.66;;;17.49;56.41
15308;BME280;7755;52.208;6.964;2023-06-14T05:10:29;101308.69;;;17.52;56.61
15308;BME280;7755;52.208;6.964;2023-06-14T05:14:32;101309.78;;;17.51;56.61
15308;BME280;7755;52.208;6.964;2023-06-14T05:18:36;101319.13;;;17.60;56.83
15308;BME280;7755;52.208;6.964;2023-06-14T05:22:39;101320.81;;;17.61;56.93
15308;BME280;7755;52.208;6.964;2023-06-14T05:26:42;101315.59;;;17.65;56.71
15308;BME280;7755;52.208;6.964;2023-06-14T05:30:45;101307.63;;;17.68;57.05
15308;BME280;7755;52.208;6.964;2023-06-14T05:34:49;101314.78;;;17.74;56.35
15308;BME280;7755;52.208;6.964;2023-06-14T05:38:52;101315.91;;;17.84;56.28
15308;BME280;7755;52.208;6.964;2023-06-14T05:42:59;101316.19;;;17.97;56.46
15308;BME280;7755;52.208;6.964;2023-06-14T05:47:02;101318.94;;;18.18;56.12
15308;BME280;7755;52.208;6.964;2023-06-14T05:51:06;101326.34;;;18.38;55.66
15308;BME280;7755;52.208;6.964;2023-06-14T05:55:10;101332.94;;;18.52;54.85
15308;BME280;7755;52.208;6.964;2023-06-14T05:59:15;101329.06;;;18.78;53.81
15308;BME280;7755;52.208;6.964;2023-06-14T06:03:18;101340.72;;;19.25;52.62
15308;BME280;7755;52.208;6.964;2023-06-14T06:07:24;101338.47;;;19.81;51.59
15308;BME280;7755;52.208;6.964;2023-06-14T06:11:27;101340.13;;;20.51;49.67
15308;BME280;7755;52.208;6.964;2023-06-14T06:15:41;101330.31;;;21.11;48.18
15308;BME280;7755;52.208;6.964;2023-06-14T06:19:44;101340.72;;;21.43;46.83
15308;BME280;7755;52.208;6.964;2023-06-14T06:23:48;101342.19;;;21.92;45.76
15308;BME280;7755;52.208;6.964;2023-06-14T06:27:51;101343.56;;;22.27;44.64
15308;BME280;7755;52.208;6.964;2023-06-14T06:31:54;101343.75;;;22.64;43.91
15308;BME280;7755;52.208;6.964;2023-06-14T06:35:57;101342.56;;;23.11;43.30
15308;BME280;7755;52.208;6.964;2023-06-14T06:40:02;101336.75;;;23.49;42.12
15308;BME280;7755;52.208;6.964;2023-06-14T06:44:07;101352.00;;;23.87;41.80
15308;BME280;7755;52.208;6.964;2023-06-14T06:48:13;101352.44;;;24.26;40.63
15308;BME280;7755;52.208;6.964;2023-06-14T06:52:18;101359.25;;;24.42;40.10
15308;BME280;7755;52.208;6.964;2023-06-14T06:56:22;101357.56;;;24.63;39.70
15308;BME280;7755;52.208;6.964;2023-06-14T07:00:26;101365.91;;;24.94;39.20
15308;BME280;7755;52.208;6.964;2023-06-14T07:04:29;101369.78;;;25.24;38.25
15308;BME280;7755;52.208;6.964;2023-06-14T07:08:32;101365.44;;;25.49;37.07
15308;BME280;7755;52.208;6.964;2023-06-14T07:12:37;101367.47;;;25.75;36.09
15308;BME280;7755;52.208;6.964;2023-06-14T07:16:41;101371.22;;;25.88;35.44
15308;BME280;7755;52.208;6.964;2023-06-14T07:20:45;101378.91;;;25.73;34.26
15308;BME280;7755;52.208;6.964;2023-06-14T07:24:49;101385.31;;;25.82;34.43
15308;BME280;7755;52.208;6.964;2023-06-14T07:28:53;101386.63;;;26.02;33.71
15308;BME280;7755;52.208;6.964;2023-06-14T07:32:56;101388.25;;;26.21;34.06
15308;BME280;7755;52.208;6.964;2023-06-14T07:36:59;101378.41;;;26.32;33.10
15308;BME280;7755;52.208;6.964;2023-06-14T07:41:03;101380.69;;;26.47;32.84
15308;BME280;7755;52.208;6.964;2023-06-14T07:45:07;101383.31;;;26.35;32.37
15308;BME280;7755;52.208;6.964;2023-06-14T07:49:11;101391.50;;;26.57;32.36
15308;BME280;7755;52.208;6.964;2023-06-14T07:53:14;101388.66;;;26.75;31.77
15308;BME280;7755;52.208;6.964;2023-06-14T07:57:16;101392.50;;;27.00;32.07
15308;BME280;7755;52.208;6.964;2023-06-14T08:01:22;101392.94;;;27.19;31.43
15308;BME280;7755;52.208;6.964;2023-06-14T08:05:28;101389.22;;;27.36;30.38
15308;BME280;7755;52.208;6.964;2023-06-14T08:09:30;101383.88;;;27.52;29.93
15308;BME280;7755;52.208;6.964;2023-06-14T08:13:34;101383.53;;;27.53;29.77
15308;BME280;7755;52.208;6.964;2023-06-14T08:17:38;101379.28;;;27.77;29.72
15308;BME280;7755;52.208;6.964;2023-06-14T08:21:41;101374.56;;;27.89;29.82
15308;BME280;7755;52.208;6.964;2023-06-14T08:25:45;101383.38;;;28.00;29.20
15308;BME280;7755;52.208;6.964;2023-06-14T08:29:48;101375.91;;;28.04;29.42
15308;BME280;7755;52.208;6.964;2023-06-14T08:33:53;101376.44;;;28.39;29.22
15308;BME280;7755;52.208;6.964;2023-06-14T08:37:56;101376.72;;;28.71;28.52
15308;BME280;7755;52.208;6.964;2023-06-14T08:42:01;101378.88;;;28.86;28.23
15308;BME280;7755;52.208;6.964;2023-06-14T08:46:06;101383.47;;;29.03;28.54
15308;BME280;7755;52.208;6.964;2023-06-14T08:50:11;101378.09;;;29.10;27.46
15308;BME280;7755;52.208;6.964;2023-06-14T08:54:17;101380.88;;;29.10;27.71
15308;BME280;7755;52.208;6.964;2023-06-14T08:58:22;101385.53;;;29.06;27.85
15308;BME280;7755;52.208;6.964;2023-06-14T09:02:26;101396.44;;;29.20;27.68
15308;BME280;7755;52.208;6.964;2023-06-14T09:06:30;101395.59;;;29.19;28.47
15308;BME280;7755;52.208;6.964;2023-06-14T09:10:33;101386.72;;;29.42;28.13
15308;BME280;7755;52.208;6.964;2023-06-14T09:14:40;101395.72;;;29.47;28.53
15308;BME280;7755;52.208;6.964;2023-06-14T09:18:45;101384.25;;;29.64;28.46
15308;BME280;7755;52.208;6.964;2023-06-14T09:22:53;101398.00;;;29.82;28.24
15308;BME280;7755;52.208;6.964;2023-06-14T09:26:57;101383.00;;;29.90;28.26
15308;BME280;7755;52.208;6.964;2023-06-14T09:31:00;101386.78;;;29.82;28.10
15308;BME280;7755;52.208;6.964;2023-06-14T09:35:04;101392.66;;;29.52;28.27
15308;BME280;7755;52.208;6.964;2023-06-14T09:39:08;101391.97;;;29.55;28.08
15308;BME280;7755;52.208;6.964;2023-06-14T09:43:12;101399.31;;;29.48;28.20
15308;BME280;7755;52.208;6.964;2023-06-14T09:47:15;101402.81;;;29.69;28.33
15308;BME280;7755;52.208;6.964;2023-06-14T09:51:19;101407.84;;;29.51;28.58
15308;BME280;7755;52.208;6.964;2023-06-14T09:55:27;101412.06;;;29.57;28.28
15308;BME280;7755;52.208;6.964;2023-06-14T09:59:31;101400.81;;;29.45;28.21
15308;BME280;7755;52.208;6.964;2023-06-14T10:03:36;101400.16;;;29.60;28.11
15308;BME280;7755;52.208;6.964;2023-06-14T10:08:04;101406.13;;;29.87;28.77
15308;BME280;7755;52.208;6.964;2023-06-14T10:12:11;101406.91;;;30.00;27.47
15308;BME280;7755;52.208;6.964;2023-06-14T10:16:20;101408.47;;;29.97;27.36
15308;BME280;7755;52.208;6.964;2023-06-14T10:20:30;101404.41;;;29.95;26.76
15308;BME280;7755;52.208;6.964;2023-06-14T10:24:40;101407.84;;;30.04;27.12
15308;BME280;7755;52.208;6.964;2023-06-14T10:28:56;101415.34;;;30.12;26.76
15308;BME280;7755;52.208;6.964;2023-06-14T10:33:04;101410.28;;;30.05;26.43
15308;BME280;7755;52.208;6.964;2023-06-14T10:37:11;101414.94;;;30.26;26.29
15308;BME280;7755;52.208;6.964;2023-06-14T10:41:16;101413.94;;;30.34;26.40
15308;BME280;7755;52.208;6.964;2023-06-14T10:45:21;101402.72;;;30.34;25.98
15308;BME280;7755;52.208;6.964;2023-06-14T10:49:40;101405.41;;;30.14;26.34
15308;BME280;7755;52.208;6.964;2023-06-14T10:53:45;101398.63;;;30.15;26.62
15308;BME280;7755;52.208;6.964;2023-06-14T10:57:50;101404.47;;;29.98;26.89
15308;BME280;7755;52.208;6.964;2023-06-14T11:02:13;101392.59;;;30.29;26.90
15308;BME280;7755;52.208;6.964;2023-06-14T11:06:27;101387.19;;;30.36;26.71
15308;BME280;7755;52.208;6.964;2023-06-14T11:10:40;101383.84;;;30.47;26.90
15308;BME280;7755;52.208;6.964;2023-06-14T11:14:45;101389.50;;;30.34;26.93
15308;BME280;7755;52.208;6.964;2023-06-14T11:18:50;101382.75;;;30.35;27.50
15308;BME280;7755;52.208;6.964;2023-06-14T11:22:53;101392.13;;;30.27;27.61
15308;BME280;7755;52.208;6.964;2023-06-14T11:26:56;101379.25;;;30.26;27.08
15308;BME280;7755;52.208;6.964;2023-06-14T11:31:00;101375.53;;;30.50;27.95
15308;BME280;7755;52.208;6.964;2023-06-14T11:35:05;101378.72;;;30.64;27.61
15308;BME280;7755;52.208;6.964;2023-06-14T11:39:09;101372.72;;;30.66;27.92
15308;BME280;7755;52.208;6.964;2023-06-14T11:43:12;101372.06;;;30.69;28.23
15308;BME280;7755;52.208;6.964;2023-06-14T11:47:15;101365.97;;;30.67;27.95
15308;BME280;7755;52.208;6.964;2023-06-14T11:51:20;101367.25;;;30.69;27.99
15308;BME280;7755;52.208;6.964;2023-06-14T11:55:23;101370.06;;;30.69;27.68
15308;BME280;7755;52.208;6.964;2023-06-14T11:59:27;101366.50;;;31.04;27.75
15308;BME280;7755;52.208;6.964;2023-06-14T12:03:30;101368.75;;;31.14;27.39
15308;BME280;7755;52.208;6.964;2023-06-14T12:07:36;101365.28;;;31.21;27.37
15308;BME280;7755;52.208;6.964;2023-06-14T12:11:39;101366.72;;;31.46;26.67
15308;BME280;7755;52.208;6.964;2023-06-14T12:15:42;101372.28;;;31.62;26.88
15308;BME280;7755;52.208;6.964;2023-06-14T12:19:46;101367.00;;;31.41;26.73
15308;BME280;7755;52.208;6.964;2023-06-14T12:23:50;101371.81;;;31.41;27.06
15308;BME280;7755;52.208;6.964;2023-06-14T12:27:54;101373.75;;;31.37;27.32
15308;BME280;7755;52.208;6.964;2023-06-14T12:31:57;101374.50;;;31.53;26.82
15308;BME280;7755;52.208;6.964;2023-06-14T12:36:03;101374.63;;;31.41;26.75
15308;BME280;7755;52.208;6.964;2023-06-14T12:40:10;101369.53;;;31.46;26.68
15308;BME280;7755;52.208;6.964;2023-06-14T12:44:14;101365.09;;;31.45;27.27
15308;BME280;7755;52.208;6.964;2023-06-14T12:48:17;101371.16;;;31.47;26.37
15308;BME280;7755;52.208;6.964;2023-06-14T12:52:21;101360.03;;;31.35;27.12
15308;BME280;7755;52.208;6.964;2023-06-14T12:56:25;101364.31;;;31.29;26.22
15308;BME280;7755;52.208;6.964;2023-06-14T13:00:35;101365.88;;;31.27;26.24
15308;BME280;7755;52.208;6.964;2023-06-14T13:04:38;101366.56;;;31.39;26.26
15308;BME280;7755;52.208;6.964;2023-06-14T13:08:41;101362.78;;;31.32;26.17
15308;BME280;7755;52.208;6.964;2023-06-14T13:12:47;101372.34;;;31.46;26.96
15308;BME280;7755;52.208;6.964;2023-06-14T13:16:50;101374.88;;;31.51;26.41
15308;BME280;7755;52.208;6.964;2023-06-14T13:20:53;101367.22;;;31.17;26.01
15308;BME280;7755;52.208;6.964;2023-06-14T13:24:56;101374.84;;;31.01;26.30
15308;BME280;7755;52.208;6.964;2023-06-14T13:29:00;101378.41;;;30.54;26.81
15308;BME280;7755;52.208;6.964;2023-06-14T13:33:03;101374.97;;;30.60;27.62
15308;BME280;7755;52.208;6.964;2023-06-14T13:37:06;101369.06;;;30.78;27.93
15308;BME280;7755;52.208;6.964;2023-06-14T13:41:09;101365.16;;;30.98;26.84
15308;BME280;7755;52.208;6.964;2023-06-14T13:45:15;101357.81;;;30.93;26.79
15308;BME280;7755;52.208;6.964;2023-06-14T13:49:19;101350.09;;;31.06;26.72
15308;BME280;7755;52.208;6.964;2023-06-14T13:53:22;101359.25;;;31.19;26.74
15308;BME280;7755;52.208;6.964;2023-06-14T13:57:26;101352.63;;;30.95;26.58
15308;BME280;7755;52.208;6.964;2023-06-14T14:01:30;101340.34;;;30.84;26.26
15308;BME280;7755;52.208;6.964;2023-06-14T14:05:34;101339.84;;;30.51;25.94
15308;BME280;7755;52.208;6.964;2023-06-14T14:09:38;101332.94;;;30.32;26.27
15308;BME280;7755;52.208;6.964;2023-06-14T14:13:45;101334.91;;;30.16;26.99
15308;BME280;7755;52.208;6.964;2023-06-14T14:17:50;101330.50;;;30.47;26.73
15308;BME280;7755;52.208;6.964;2023-06-14T14:21:55;101329.00;;;30.49;26.76
15308;BME280;7755;52.208;6.964;2023-06-14T14:25:59;101340.09;;;30.30;27.39
15308;BME280;7755;52.208;6.964;2023-06-14T14:30:07;101339.84;;;30.51;27.28
15308;BME280;7755;52.208;6.964;2023-06-14T14:34:12;101344.66;;;30.50;26.80
15308;BME280;7755;52.208;6.964;2023-06-14T14:38:15;101341.53;;;29.96;27.05
15308;BME280;7755;52.208;6.964;2023-06-14T14:42:18;101342.91;;;30.02;28.03
15308;BME280;7755;52.208;6.964;2023-06-14T14:46:21;101335.38;;;30.06;27.66
15308;BME280;7755;52.208;6.964;2023-06-14T14:50:28;101341.66;;;29.87;27.28
15308;BME280;7755;52.208;6.964;2023-06-14T14:54:32;101339.00;;;30.06;27.38
15308;BME280;7755;52.208;6.964;2023-06-14T14:58:36;101350.13;;;29.75;27.88
15308;BME280;7755;52.208;6.964;2023-06-14T15:02:39;101334.72;;;29.69;28.54
15308;BME280;7755;52.208;6.964;2023-06-14T15:06:48;101336.00;;;29.71;28.17
15308;BME280;7755;52.208;6.964;2023-06-14T15:10:58;101344.13;;;29.36;28.33
15308;BME280;7755;52.208;6.964;2023-06-14T15:15:21;101342.25;;;29.40;29.08
15308;BME280;7755;52.208;6.964;2023-06-14T15:19:56;101342.13;;;29.36;28.29
15308;BME280;7755;52.208;6.964;2023-06-14T15:24:00;101340.94;;;29.37;28.72
15308;BME280;7755;52.208;6.964;2023-06-14T15:28:03;101340.16;;;29.25;29.14
15308;BME280;7755;52.208;6.964;2023-06-14T15:32:09;101356.13;;;29.24;28.90
15308;BME280;7755;52.208;6.964;2023-06-14T15:36:13;101345.44;;;29.14;28.97
15308;BME280;7755;52.208;6.964;2023-06-14T15:40:18;101333.41;;;29.01;28.74
15308;BME280;7755;52.208;6.964;2023-06-14T15:44:21;101341.53;;;28.70;29.16
15308;BME280;7755;52.208;6.964;2023-06-14T15:48:24;101338.50;;;28.75;29.79
15308;BME280;7755;52.208;6.964;2023-06-14T15:52:27;101337.00;;;28.90;29.98
15308;BME280;7755;52.208;6.964;2023-06-14T15:56:35;101325.47;;;28.91;29.63
15308;BME280;7755;52.208;6.964;2023-06-14T16:00:38;101324.78;;;28.94;29.93
15308;BME280;7755;52.208;6.964;2023-06-14T16:04:41;101333.72;;;28.88;29.68
15308;BME280;7755;52.208;6.964;2023-06-14T16:08:44;101337.81;;;28.66;29.56
15308;BME280;7755;52.208;6.964;2023-06-14T16:12:49;101335.66;;;28.50;30.18
15308;BME280;7755;52.208;6.964;2023-06-14T16:16:53;101335.75;;;28.42;32.60
15308;BME280;7755;52.208;6.964;2023-06-14T16:20:56;101334.25;;;28.44;30.31
15308;BME280;7755;52.208;6.964;2023-06-14T16:24:59;101330.78;;;28.47;30.63
15308;BME280;7755;52.208;6.964;2023-06-14T16:29:05;101322.72;;;28.58;30.22
15308;BME280;7755;52.208;6.964;2023-06-14T16:33:07;101321.91;;;28.58;30.00
15308;BME280;7755;52.208;6.964;2023-06-14T16:37:10;101322.63;;;28.54;30.26
15308;BME280;7755;52.208;6.964;2023-06-14T16:41:14;101324.56;;;28.42;30.19
15308;BME280;7755;52.208;6.964;2023-06-14T16:45:24;101325.84;;;28.32;29.92
15308;BME280;7755;52.208;6.964;2023-06-14T16:49:43;101331.13;;;28.13;30.14
15308;BME280;7755;52.208;6.964;2023-06-14T16:54:01;101318.59;;;27.98;30.46
15308;BME280;7755;52.208;6.964;2023-06-14T16:58:16;101334.88;;;27.96;30.50
15308;BME280;7755;52.208;6.964;2023-06-14T17:02:28;101336.00;;;27.83;30.45
15308;BME280;7755;52.208;6.964;2023-06-14T17:06:31;101335.38;;;27.77;30.57
15308;BME280;7755;52.208;6.964;2023-06-14T17:10:45;101341.34;;;27.67;30.43
15308;BME280;7755;52.208;6.964;2023-06-14T17:14:49;101335.22;;;27.53;30.44
15308;BME280;7755;52.208;6.964;2023-06-14T17:18:56;101346.72;;;27.30;31.07
15308;BME280;7755;52.208;6.964;2023-06-14T17:22:59;101335.94;;;27.20;31.11
15308;BME280;7755;52.208;6.964;2023-06-14T17:27:04;101330.41;;;27.11;31.60
15308;BME280;7755;52.208;6.964;2023-06-14T17:31:07;101334.03;;;27.03;31.36
15308;BME280;7755;52.208;6.964;2023-06-14T17:35:12;101349.66;;;26.95;31.91
15308;BME280;7755;52.208;6.964;2023-06-14T17:39:16;101344.56;;;26.98;31.68
15308;BME280;7755;52.208;6.964;2023-06-14T17:43:34;101350.00;;;26.94;31.83
15308;BME280;7755;52.208;6.964;2023-06-14T17:47:37;101345.06;;;27.00;31.98
15308;BME280;7755;52.208;6.964;2023-06-14T17:51:42;101344.56;;;26.98;32.23
15308;BME280;7755;52.208;6.964;2023-06-14T17:55:45;101357.91;;;26.92;32.41
15308;BME280;7755;52.208;6.964;2023-06-14T17:59:52;101347.44;;;26.80;32.78
15308;BME280;7755;52.208;6.964;2023-06-14T18:03:57;101343.91;;;26.62;33.01
15308;BME280;7755;52.208;6.964;2023-06-14T18:08:11;101344.59;;;26.51;32.78
15308;BME280;7755;52.208;6.964;2023-06-14T18:12:23;101348.72;;;26.45;33.20
15308;BME280;7755;52.208;6.964;2023-06-14T18:16:27;101353.00;;;26.25;32.83
15308;BME280;7755;52.208;6.964;2023-06-14T18:20:32;101361.84;;;26.18;33.13
15308;BME280;7755;52.208;6.964;2023-06-14T18:24:38;101363.03;;;26.08;33.71
15308;BME280;7755;52.208;6.964;2023-06-14T18:28:55;101367.63;;;25.96;34.05
15308;BME280;7755;52.208;6.964;2023-06-14T18:33:12;101371.53;;;25.86;34.08
15308;BME280;7755;52.208;6.964;2023-06-14T18:37:25;101375.31;;;25.73;34.58
15308;BME280;7755;52.208;6.964;2023-06-14T18:41:39;101376.09;;;25.47;34.78
15308;BME280;7755;52.208;6.964;2023-06-14T18:45:43;101383.75;;;25.42;34.59
15308;BME280;7755;52.208;6.964;2023-06-14T18:49:47;101387.84;;;25.44;34.70
15308;BME280;7755;52.208;6.964;2023-06-14T18:53:59;101382.44;;;25.39;35.28
15308;BME280;7755;52.208;6.964;2023-06-14T18:58:06;101388.47;;;25.24;35.54
15308;BME280;7755;52.208;6.964;2023-06-14T19:02:11;101384.50;;;25.16;35.52
15308;BME280;7755;52.208;6.964;2023-06-14T19:06:18;101390.53;;;25.10;35.89
15308;BME280;7755;52.208;6.964;2023-06-14T19:10:26;101393.47;;;25.04;35.92
15308;BME280;7755;52.208;6.964;2023-06-14T19:14:36;101397.69;;;25.02;36.30
15308;BME280;7755;52.208;6.964;2023-06-14T19:18:40;101398.16;;;24.95;36.45
15308;BME280;7755;52.208;6.964;2023-06-14T19:22:53;101396.78;;;24.84;36.68
15308;BME280;7755;52.208;6.964;2023-06-14T19:27:08;101398.72;;;24.75;37.07
15308;BME280;7755;52.208;6.964;2023-06-14T19:31:37;101394.22;;;24.65;37.22
15308;BME280;7755;52.208;6.964;2023-06-14T19:35:45;101402.19;;;24.58;37.52
15308;BME280;7755;52.208;6.964;2023-06-14T19:39:49;101407.22;;;24.47;37.72
15308;BME280;7755;52.208;6.964;2023-06-14T19:43:52;101411.59;;;24.40;37.93
15308;BME280;7755;52.208;6.964;2023-06-14T19:47:59;101414.50;;;24.35;38.43
15308;BME280;7755;52.208;6.964;2023-06-14T19:52:43;101419.75;;;24.22;38.40
15308;BME280;7755;52.208;6.964;2023-06-14T19:56:46;101418.06;;;24.13;38.81
15308;BME280;7755;52.208;6.964;2023-06-14T20:00:49;101430.44;;;24.07;39.04
15308;BME280;7755;52.208;6.964;2023-06-14T20:04:57;101433.94;;;23.99;39.01
15308;BME280;7755;52.208;6.964;2023-06-14T20:09:00;101429.75;;;23.87;39.25
15308;BME280;7755;52.208;6.964;2023-06-14T20:13:08;101436.06;;;23.79;39.65
15308;BME280;7755;52.208;6.964;2023-06-14T20:17:13;101447.38;;;23.69;40.14
15308;BME280;7755;52.208;6.964;2023-06-14T20:21:19;101440.47;;;23.53;40.45
15308;BME280;7755;52.208;6.964;2023-06-14T20:25:24;101452.09;;;23.41;40.87
15308;BME280;7755;52.208;6.964;2023-06-14T20:29:28;101449.22;;;23.32;41.18
15308;BME280;7755;52.208;6.964;2023-06-14T20:33:35;101458.56;;;23.23;41.26
15308;BME280;7755;52.208;6.964;2023-06-14T20:37:45;101452.91;;;23.14;41.63
15308;BME280;7755;52.208;6.964;2023-06-14T20:41:49;101453.13;;;23.04;41.69
15308;BME280;7755;52.208;6.964;2023-06-14T20:45:53;101454.13;;;22.94;42.05
15308;BME280;7755;52.208;6.964;2023-06-14T20:50:03;101461.47;;;22.85;42.15
15308;BME280;7755;52.208;6.964;2023-06-14T20:54:19;101453.88;;;22.77;42.67
15308;BME280;7755;52.208;6.964;2023-06-14T20:58:26;101461.75;;;22.70;42.81
15308;BME280;7755;52.208;6.964;2023-06-14T21:02:34;101467.44;;;22.59;43.67
15308;BME280;7755;52.208;6.964;2023-06-14T21:06:49;101468.25;;;22.27;44.88
15308;BME280;7755;52.208;6.964;2023-06-14T21:11:05;101468.78;;;21.87;46.65
15308;BME280;7755;52.208;6.964;2023-06-14T21:15:09;101477.72;;;21.60;47.23
15308;BME280;7755;52.208;6.964;2023-06-14T21:19:13;101472.22;;;21.36;48.01
15308;BME280;7755;52.208;6.964;2023-06-14T21:23:17;101478.50;;;21.12;48.75
15308;BME280;7755;52.208;6.964;2023-06-14T21:27:23;101475.19;;;21.15;48.73
15308;BME280;7755;52.208;6.964;2023-06-14T21:31:26;101471.25;;;21.21;48.29
15308;BME280;7755;52.208;6.964;2023-06-14T21:35:30;101459.88;;;21.23;48.46
15308;BME280;7755;52.208;6.964;2023-06-14T21:39:34;101474.84;;;21.22;48.32
15308;BME280;7755;52.208;6.964;2023-06-14T21:43:40;101466.06;;;21.15;48.58
15308;BME280;7755;52.208;6.964;2023-06-14T21:47:44;101473.28;;;21.11;48.40
15308;BME280;7755;52.208;6.964;2023-06-14T21:51:53;101475.56;;;21.04;48.60
15308;BME280;7755;52.208;6.964;2023-06-14T21:55:56;101478.97;;;20.95;49.33